sensor_id;sensor_type;location;lat;lon;timestamp;temperature;humidity
20041;DHT22;10181;48.072;9.884;2024-01-15T00:01:17;-1.00;99.90
20041;DHT22;10181;48.072;9.884;2024-01-15T00:03:42;-1.00;99.90
20041;DHT22;10181;48.072;9.884;2024-01-15T00:06:08;-1.10;99.90
20041;DHT22;10181;48.072;9.884;2024-01-15T00:08:34;-1.20;99.90
20041;DHT22;10181;48.072;9.884;2024-01-15T00:10:59;-1.20;99.90
20041;DHT22;10181;48.072;9.884;2024-01-15T00:13:25;-1.30;99.90
20041;DHT22;10181;48.072;9.884;2024-01-15T00:15:51;-1.40;99.90
20041;DHT22;10181;48.072;9.884;2024-01-15T00:18:16;-1.50;99.90
20041;DHT22;10181;48.072;9.884;2024-01-15T00:20:42;-1.50;99.90
20041;DHT22;10181;48.072;9.884;2024-01-15T00:23:07;-1.50;99.90
20041;DHT22;10181;48.072;9.884;2024-01-15T00:25:33;-1.60;99.90
20041;DHT22;10181;48.072;9.884;2024-01-15T00:27:58;-1.60;99.90
20041;DHT22;10181;48.072;9.884;2024-01-15T00:30:24;-1.60;99.90
20041;DHT22;10181;48.072;9.884;2024-01-15T00:32:50;-1.70;99.90
20041;DHT22;10181;48.072;9.884;2024-01-15T00:35:15;-1.70;99.90
20041;DHT22;10181;48.072;9.884;2024-01-15T00:37:41;-1.70;99.90
20041;DHT22;10181;48.072;9.884;2024-01-15T00:40:07;-1.70;99.90
20041;DHT22;10181;48.072;9.884;2024-01-15T00:42:33;-1.70;99.90
20041;DHT22;10181;48.072;9.884;2024-01-15T00:44:59;-1.70;99.90
20041;DHT22;10181;48.072;9.884;2024-01-15T00:47:25;-1.70;99.90
20041;DHT22;10181;48.072;9.884;2024-01-15T00:49:51;-1.80;99.90
20041;DHT22;10181;48.072;9.884;2024-01-15T00:52:16;-1.70;99.90
20041;DHT22;10181;48.072;9.884;2024-01-15T00:54:42;-1.70;99.90
20041;DHT22;10181;48.072;9.884;2024-01-15T00:57:07;-1.80;99.90
20041;DHT22;10181;48.072;9.884;2024-01-15T00:59:33;-1.90;99.90
20041;DHT22;10181;48.072;9.884;2024-01-15T01:01:59;-1.90;99.90
20041;DHT22;10181;48.072;9.884;2024-01-15T01:04:24;-1.90;99.90
20041;DHT22;10181;48.072;9.884;2024-01-15T01:06:50;-2.00;99.90
20041;DHT22;10181;48.072;9.884;2024-01-15T01:09:15;-2.00;99.90
20041;DHT22;10181;48.072;9.884;2024-01-15T01:11:41;-2.10;99.90
20041;DHT22;10181;48.072;9.884;2024-01-15T01:14:07;-2.10;99.90
20041;DHT22;10181;48.072;9.884;2024-01-15T01:16:32;-2.20;99.90
20041;DHT22;10181;48.072;9.884;2024-01-15T01:19:06;-2.30;99.90
20041;DHT22;10181;48.072;9.884;2024-01-15T01:21:33;-2.30;99.90
20041;DHT22;10181;48.072;9.884;2024-01-15T01:23:59;-2.40;99.90
20041;DHT22;10181;48.072;9.884;2024-01-15T01:26:24;-2.40;99.90
20041;DHT22;10181;48.072;9.884;2024-01-15T01:28:50;-2.40;99.90
20041;DHT22;10181;48.072;9.884;2024-01-15T01:31:16;-2.50;99.90
20041;DHT22;10181;48.072;9.884;2024-01-15T01:33:42;-2.50;99.90
20041;DHT22;10181;48.072;9.884;2024-01-15T01:36:10;-2.50;99.90
20041;DHT22;10181;48.072;9.884;2024-01-15T01:38:37;-2.50;99.90
20041;DHT22;10181;48.072;9.884;2024-01-15T01:41:02;-2.50;99.90
20041;DHT22;10181;48.072;9.884;2024-01-15T01:43:28;-2.40;99.90
20041;DHT22;10181;48.072;9.884;2024-01-15T01:45:56;-2.40;99.90
20041;DHT22;10181;48.072;9.884;2024-01-15T01:48:22;-2.30;99.90
20041;DHT22;10181;48.072;9.884;2024-01-15T01:50:48;-2.30;99.90
20041;DHT22;10181;48.072;9.884;2024-01-15T01:53:14;-2.30;99.90
20041;DHT22;10181;48.072;9.884;2024-01-15T01:55:40;-2.30;99.90
20041;DHT22;10181;48.072;9.884;2024-01-15T01:58:06;-2.30;99.90
20041;DHT22;10181;48.072;9.884;2024-01-15T02:00:33;-2.40;99.90
20041;DHT22;10181;48.072;9.884;2024-01-15T02:02:59;-2.40;99.90
20041;DHT22;10181;48.072;9.884;2024-01-15T02:05:25;-2.50;99.90
20041;DHT22;10181;48.072;9.884;2024-01-15T02:07:52;-2.60;99.90
20041;DHT22;10181;48.072;9.884;2024-01-15T02:10:17;-2.60;99.90
20041;DHT22;10181;48.072;9.884;2024-01-15T02:12:43;-2.60;99.90
20041;DHT22;10181;48.072;9.884;2024-01-15T02:15:09;-2.60;99.90
20041;DHT22;10181;48.072;9.884;2024-01-15T02:17:35;-2.60;99.90
20041;DHT22;10181;48.072;9.884;2024-01-15T02:20:01;-2.60;99.90
20041;DHT22;10181;48.072;9.884;2024-01-15T02:22:26;-2.60;99.90
20041;DHT22;10181;48.072;9.884;2024-01-15T02:24:52;-2.60;99.90
20041;DHT22;10181;48.072;9.884;2024-01-15T02:27:18;-2.70;99.90
20041;DHT22;10181;48.072;9.884;2024-01-15T02:29:44;-2.70;99.90
20041;DHT22;10181;48.072;9.884;2024-01-15T02:32:10;-2.70;99.90
20041;DHT22;10181;48.072;9.884;2024-01-15T02:34:36;-2.70;99.90
20041;DHT22;10181;48.072;9.884;2024-01-15T02:37:02;-2.80;99.90
20041;DHT22;10181;48.072;9.884;2024-01-15T02:39:27;-2.80;99.90
20041;DHT22;10181;48.072;9.884;2024-01-15T02:41:54;-2.80;99.90
20041;DHT22;10181;48.072;9.884;2024-01-15T02:44:21;-2.80;99.90
20041;DHT22;10181;48.072;9.884;2024-01-15T02:46:47;-2.80;99.90
20041;DHT22;10181;48.072;9.884;2024-01-15T02:49:12;-2.70;99.90
20041;DHT22;10181;48.072;9.884;2024-01-15T02:51:38;-2.60;99.90
20041;DHT22;10181;48.072;9.884;2024-01-15T02:54:03;-2.60;99.90
20041;DHT22;10181;48.072;9.884;2024-01-15T02:56:29;-2.60;99.90
20041;DHT22;10181;48.072;9.884;2024-01-15T02:58:55;-2.60;99.90
20041;DHT22;10181;48.072;9.884;2024-01-15T03:01:20;-2.70;99.90
20041;DHT22;10181;48.072;9.884;2024-01-15T03:03:46;-2.70;99.90
20041;DHT22;10181;48.072;9.884;2024-01-15T03:06:12;-2.70;99.90
20041;DHT22;10181;48.072;9.884;2024-01-15T03:08:37;-2.60;99.90
20041;DHT22;10181;48.072;9.884;2024-01-15T03:11:03;-2.70;99.90
20041;DHT22;10181;48.072;9.884;2024-01-15T03:13:29;-2.70;99.90
20041;DHT22;10181;48.072;9.884;2024-01-15T03:15:54;-2.70;99.90
20041;DHT22;10181;48.072;9.884;2024-01-15T03:18:20;-2.70;99.90
20041;DHT22;10181;48.072;9.884;2024-01-15T03:20:45;-2.70;99.90
20041;DHT22;10181;48.072;9.884;2024-01-15T03:23:11;-2.70;99.90
20041;DHT22;10181;48.072;9.884;2024-01-15T03:25:36;-2.80;99.90
20041;DHT22;10181;48.072;9.884;2024-01-15T03:28:02;-2.80;99.90
20041;DHT22;10181;48.072;9.884;2024-01-15T03:30:27;-2.80;99.90
20041;DHT22;10181;48.072;9.884;2024-01-15T03:32:53;-2.70;99.90
20041;DHT22;10181;48.072;9.884;2024-01-15T03:35:19;-2.60;99.90
20041;DHT22;10181;48.072;9.884;2024-01-15T03:37:45;-2.50;99.90
20041;DHT22;10181;48.072;9.884;2024-01-15T03:40:11;-2.40;99.90
20041;DHT22;10181;48.072;9.884;2024-01-15T03:42:36;-2.30;99.90
20041;DHT22;10181;48.072;9.884;2024-01-15T03:45:02;-2.30;99.90
20041;DHT22;10181;48.072;9.884;2024-01-15T03:47:28;-2.30;99.90
20041;DHT22;10181;48.072;9.884;2024-01-15T03:49:53;-2.20;99.90
20041;DHT22;10181;48.072;9.884;2024-01-15T03:52:19;-2.20;99.90
20041;DHT22;10181;48.072;9.884;2024-01-15T03:54:44;-2.20;99.90
20041;DHT22;10181;48.072;9.884;2024-01-15T03:57:10;-2.10;99.90
20041;DHT22;10181;48.072;9.884;2024-01-15T03:59:36;-2.10;99.90
20041;DHT22;10181;48.072;9.884;2024-01-15T04:02:01;-2.00;99.90
20041;DHT22;10181;48.072;9.884;2024-01-15T04:04:27;-2.00;99.90
20041;DHT22;10181;48.072;9.884;2024-01-15T04:06:52;-1.90;99.90
20041;DHT22;10181;48.072;9.884;2024-01-15T04:09:18;-1.90;99.90
20041;DHT22;10181;48.072;9.884;2024-01-15T04:11:43;-1.80;99.90
20041;DHT22;10181;48.072;9.884;2024-01-15T04:14:09;-1.80;99.90
20041;DHT22;10181;48.072;9.884;2024-01-15T04:16:34;-1.90;99.90
20041;DHT22;10181;48.072;9.884;2024-01-15T04:19:00;-1.90;99.90
20041;DHT22;10181;48.072;9.884;2024-01-15T04:21:26;-2.00;99.90
20041;DHT22;10181;48.072;9.884;2024-01-15T04:23:51;-2.00;99.90
20041;DHT22;10181;48.072;9.884;2024-01-15T04:26:17;-2.10;99.90
20041;DHT22;10181;48.072;9.884;2024-01-15T04:28:42;-2.10;99.90
20041;DHT22;10181;48.072;9.884;2024-01-15T04:31:08;-2.10;99.90
20041;DHT22;10181;48.072;9.884;2024-01-15T04:33:33;-2.00;99.90
20041;DHT22;10181;48.072;9.884;2024-01-15T04:36:02;-2.10;99.90
20041;DHT22;10181;48.072;9.884;2024-01-15T04:38:28;-2.00;99.90
20041;DHT22;10181;48.072;9.884;2024-01-15T04:40:54;-2.00;99.90
20041;DHT22;10181;48.072;9.884;2024-01-15T04:43:19;-2.00;99.90
20041;DHT22;10181;48.072;9.884;2024-01-15T04:45:45;-2.20;99.90
20041;DHT22;10181;48.072;9.884;2024-01-15T04:48:11;-2.30;99.90
20041;DHT22;10181;48.072;9.884;2024-01-15T04:50:36;-2.40;99.90
20041;DHT22;10181;48.072;9.884;2024-01-15T04:53:02;-2.40;99.90
20041;DHT22;10181;48.072;9.884;2024-01-15T04:55:27;-2.40;99.90
20041;DHT22;10181;48.072;9.884;2024-01-15T04:57:53;-2.40;99.90
20041;DHT22;10181;48.072;9.884;2024-01-15T05:00:18;-2.40;99.90
20041;DHT22;10181;48.072;9.884;2024-01-15T05:02:44;-2.30;99.90
20041;DHT22;10181;48.072;9.884;2024-01-15T05:05:10;-2.20;99.90
20041;DHT22;10181;48.072;9.884;2024-01-15T05:07:35;-2.10;99.90
20041;DHT22;10181;48.072;9.884;2024-01-15T05:10:01;-2.10;99.90
20041;DHT22;10181;48.072;9.884;2024-01-15T05:12:27;-2.10;99.90
20041;DHT22;10181;48.072;9.884;2024-01-15T05:14:52;-2.00;99.90
20041;DHT22;10181;48.072;9.884;2024-01-15T05:17:18;-2.00;99.90
20041;DHT22;10181;48.072;9.884;2024-01-15T05:19:43;-2.10;99.90
20041;DHT22;10181;48.072;9.884;2024-01-15T05:22:09;-2.10;99.90
20041;DHT22;10181;48.072;9.884;2024-01-15T05:24:34;-2.10;99.90
20041;DHT22;10181;48.072;9.884;2024-01-15T05:27:00;-2.10;99.90
20041;DHT22;10181;48.072;9.884;2024-01-15T05:29:25;-2.00;99.90
20041;DHT22;10181;48.072;9.884;2024-01-15T05:31:52;-2.00;99.90
20041;DHT22;10181;48.072;9.884;2024-01-15T05:34:17;-2.00;99.90
20041;DHT22;10181;48.072;9.884;2024-01-15T05:36:43;-2.00;99.90
20041;DHT22;10181;48.072;9.884;2024-01-15T05:39:09;-1.80;99.90
20041;DHT22;10181;48.072;9.884;2024-01-15T05:41:34;-1.80;99.90
20041;DHT22;10181;48.072;9.884;2024-01-15T05:44:00;-1.80;99.90
20041;DHT22;10181;48.072;9.884;2024-01-15T05:46:25;-1.80;99.90
20041;DHT22;10181;48.072;9.884;2024-01-15T05:48:51;-1.70;99.90
20041;DHT22;10181;48.072;9.884;2024-01-15T05:51:17;-1.70;99.90
20041;DHT22;10181;48.072;9.884;2024-01-15T05:53:42;-1.70;99.90
20041;DHT22;10181;48.072;9.884;2024-01-15T05:56:10;-1.70;99.90
20041;DHT22;10181;48.072;9.884;2024-01-15T05:58:35;-1.60;99.90
20041;DHT22;10181;48.072;9.884;2024-01-15T06:01:01;-1.60;99.90
20041;DHT22;10181;48.072;9.884;2024-01-15T06:03:26;-1.60;99.90
20041;DHT22;10181;48.072;9.884;2024-01-15T06:05:52;-1.60;99.90
20041;DHT22;10181;48.072;9.884;2024-01-15T06:08:18;-1.60;99.90
20041;DHT22;10181;48.072;9.884;2024-01-15T06:10:44;-1.60;99.90
20041;DHT22;10181;48.072;9.884;2024-01-15T06:13:09;-1.60;99.90
20041;DHT22;10181;48.072;9.884;2024-01-15T06:15:35;-1.50;99.90
20041;DHT22;10181;48.072;9.884;2024-01-15T06:18:01;-1.50;99.90
20041;DHT22;10181;48.072;9.884;2024-01-15T06:20:26;-1.50;99.90
20041;DHT22;10181;48.072;9.884;2024-01-15T06:22:52;-1.40;99.90
20041;DHT22;10181;48.072;9.884;2024-01-15T06:25:18;-1.40;99.90
20041;DHT22;10181;48.072;9.884;2024-01-15T06:27:43;-1.40;99.90
20041;DHT22;10181;48.072;9.884;2024-01-15T06:30:11;-1.40;99.90
20041;DHT22;10181;48.072;9.884;2024-01-15T06:32:37;-1.40;99.90
20041;DHT22;10181;48.072;9.884;2024-01-15T06:35:02;-1.30;99.90
20041;DHT22;10181;48.072;9.884;2024-01-15T06:37:31;-1.30;99.90
20041;DHT22;10181;48.072;9.884;2024-01-15T06:39:58;-1.30;99.90
20041;DHT22;10181;48.072;9.884;2024-01-15T06:42:25;-1.20;99.90
20041;DHT22;10181;48.072;9.884;2024-01-15T06:44:50;-1.20;99.90
20041;DHT22;10181;48.072;9.884;2024-01-15T06:47:16;-1.10;99.90
20041;DHT22;10181;48.072;9.884;2024-01-15T06:49:43;-1.20;99.90
20041;DHT22;10181;48.072;9.884;2024-01-15T06:52:08;-1.20;99.90
20041;DHT22;10181;48.072;9.884;2024-01-15T06:54:34;-1.30;99.90
20041;DHT22;10181;48.072;9.884;2024-01-15T06:56:59;-1.30;99.90
20041;DHT22;10181;48.072;9.884;2024-01-15T06:59:25;-1.30;99.90
20041;DHT22;10181;48.072;9.884;2024-01-15T07:01:50;-1.40;99.90
20041;DHT22;10181;48.072;9.884;2024-01-15T07:04:16;-1.40;99.90
20041;DHT22;10181;48.072;9.884;2024-01-15T07:06:42;-1.50;99.90
20041;DHT22;10181;48.072;9.884;2024-01-15T07:09:07;-1.50;99.90
20041;DHT22;10181;48.072;9.884;2024-01-15T07:11:34;-1.50;99.90
20041;DHT22;10181;48.072;9.884;2024-01-15T07:13:59;-1.60;99.90
20041;DHT22;10181;48.072;9.884;2024-01-15T07:16:25;-1.60;99.90
20041;DHT22;10181;48.072;9.884;2024-01-15T07:18:50;-1.50;99.90
20041;DHT22;10181;48.072;9.884;2024-01-15T07:21:16;-1.40;99.90
20041;DHT22;10181;48.072;9.884;2024-01-15T07:23:42;-1.40;99.90
20041;DHT22;10181;48.072;9.884;2024-01-15T07:26:08;-1.40;99.90
20041;DHT22;10181;48.072;9.884;2024-01-15T07:28:33;-1.30;99.90
20041;DHT22;10181;48.072;9.884;2024-01-15T07:30:59;-1.40;99.90
20041;DHT22;10181;48.072;9.884;2024-01-15T07:33:26;-1.30;99.90
20041;DHT22;10181;48.072;9.884;2024-01-15T07:35:52;-1.20;99.90
20041;DHT22;10181;48.072;9.884;2024-01-15T07:38:17;-1.20;99.90
20041;DHT22;10181;48.072;9.884;2024-01-15T07:40:43;-1.20;99.90
20041;DHT22;10181;48.072;9.884;2024-01-15T07:43:09;-1.20;99.90
20041;DHT22;10181;48.072;9.884;2024-01-15T07:45:34;-1.20;99.90
20041;DHT22;10181;48.072;9.884;2024-01-15T07:48:00;-1.10;99.90
20041;DHT22;10181;48.072;9.884;2024-01-15T07:50:26;-1.10;99.90
20041;DHT22;10181;48.072;9.884;2024-01-15T07:52:52;-1.10;99.90
20041;DHT22;10181;48.072;9.884;2024-01-15T07:55:18;-1.00;99.90
20041;DHT22;10181;48.072;9.884;2024-01-15T07:57:44;-1.00;99.90
20041;DHT22;10181;48.072;9.884;2024-01-15T08:00:10;-1.00;99.90
20041;DHT22;10181;48.072;9.884;2024-01-15T08:02:36;-0.90;99.90
20041;DHT22;10181;48.072;9.884;2024-01-15T08:05:01;-1.00;99.90
20041;DHT22;10181;48.072;9.884;2024-01-15T08:07:27;-1.00;99.90
20041;DHT22;10181;48.072;9.884;2024-01-15T08:09:53;-1.00;99.90
20041;DHT22;10181;48.072;9.884;2024-01-15T08:12:19;-1.00;99.90
20041;DHT22;10181;48.072;9.884;2024-01-15T08:14:44;-0.90;99.90
20041;DHT22;10181;48.072;9.884;2024-01-15T08:17:11;-1.00;99.90
20041;DHT22;10181;48.072;9.884;2024-01-15T08:19:36;-1.00;99.90
20041;DHT22;10181;48.072;9.884;2024-01-15T08:22:02;-0.90;99.90
20041;DHT22;10181;48.072;9.884;2024-01-15T08:24:28;-0.90;99.90
20041;DHT22;10181;48.072;9.884;2024-01-15T08:26:54;-0.80;99.90
20041;DHT22;10181;48.072;9.884;2024-01-15T08:29:19;-0.80;99.90
20041;DHT22;10181;48.072;9.884;2024-01-15T08:31:46;-0.80;99.90
20041;DHT22;10181;48.072;9.884;2024-01-15T08:34:12;-0.80;99.90
20041;DHT22;10181;48.072;9.884;2024-01-15T08:36:38;-0.80;99.90
20041;DHT22;10181;48.072;9.884;2024-01-15T08:39:03;-0.80;99.90
20041;DHT22;10181;48.072;9.884;2024-01-15T08:41:32;-0.80;99.90
20041;DHT22;10181;48.072;9.884;2024-01-15T08:43:57;-0.80;99.90
20041;DHT22;10181;48.072;9.884;2024-01-15T08:46:23;-0.80;99.90
20041;DHT22;10181;48.072;9.884;2024-01-15T08:48:49;-0.70;99.90
20041;DHT22;10181;48.072;9.884;2024-01-15T08:51:15;-0.70;99.90
20041;DHT22;10181;48.072;9.884;2024-01-15T08:53:41;-0.70;99.90
20041;DHT22;10181;48.072;9.884;2024-01-15T08:56:06;-0.70;99.90
20041;DHT22;10181;48.072;9.884;2024-01-15T08:58:34;-0.70;99.90
20041;DHT22;10181;48.072;9.884;2024-01-15T09:01:00;-0.80;99.90
20041;DHT22;10181;48.072;9.884;2024-01-15T09:03:25;-0.70;99.90
20041;DHT22;10181;48.072;9.884;2024-01-15T09:05:51;-0.70;99.90
20041;DHT22;10181;48.072;9.884;2024-01-15T09:08:17;-0.70;99.90
20041;DHT22;10181;48.072;9.884;2024-01-15T09:10:42;-0.70;99.90
20041;DHT22;10181;48.072;9.884;2024-01-15T09:13:08;-0.60;99.90
20041;DHT22;10181;48.072;9.884;2024-01-15T09:15:33;-0.50;99.90
20041;DHT22;10181;48.072;9.884;2024-01-15T09:18:02;-0.50;99.90
20041;DHT22;10181;48.072;9.884;2024-01-15T09:20:30;-0.50;99.90
20041;DHT22;10181;48.072;9.884;2024-01-15T09:22:56;-0.40;99.90
20041;DHT22;10181;48.072;9.884;2024-01-15T09:25:22;-0.50;99.90
20041;DHT22;10181;48.072;9.884;2024-01-15T09:27:49;-0.40;99.90
20041;DHT22;10181;48.072;9.884;2024-01-15T09:30:15;-0.40;99.90
20041;DHT22;10181;48.072;9.884;2024-01-15T09:32:47;-0.40;99.90
20041;DHT22;10181;48.072;9.884;2024-01-15T09:35:13;-0.40;99.90
20041;DHT22;10181;48.072;9.884;2024-01-15T09:37:39;-0.50;99.90
20041;DHT22;10181;48.072;9.884;2024-01-15T09:40:17;-0.50;99.90
20041;DHT22;10181;48.072;9.884;2024-01-15T09:42:46;-0.50;99.90
20041;DHT22;10181;48.072;9.884;2024-01-15T09:45:12;-0.50;99.90
20041;DHT22;10181;48.072;9.884;2024-01-15T09:47:38;-0.50;99.90
20041;DHT22;10181;48.072;9.884;2024-01-15T09:50:04;-0.50;99.90
20041;DHT22;10181;48.072;9.884;2024-01-15T09:52:31;-0.40;99.90
20041;DHT22;10181;48.072;9.884;2024-01-15T09:54:58;-0.50;99.90
20041;DHT22;10181;48.072;9.884;2024-01-15T09:57:24;-0.50;99.90
20041;DHT22;10181;48.072;9.884;2024-01-15T09:59:52;-0.60;99.90
20041;DHT22;10181;48.072;9.884;2024-01-15T10:02:19;-0.70;99.90
20041;DHT22;10181;48.072;9.884;2024-01-15T10:04:45;-0.80;99.90
20041;DHT22;10181;48.072;9.884;2024-01-15T10:07:15;-0.70;99.90
20041;DHT22;10181;48.072;9.884;2024-01-15T10:09:45;-0.70;99.90
20041;DHT22;10181;48.072;9.884;2024-01-15T10:12:11;-0.60;99.90
20041;DHT22;10181;48.072;9.884;2024-01-15T10:14:37;-0.60;99.90
20041;DHT22;10181;48.072;9.884;2024-01-15T10:17:13;-0.50;99.90
20041;DHT22;10181;48.072;9.884;2024-01-15T10:19:43;-0.50;99.90
20041;DHT22;10181;48.072;9.884;2024-01-15T10:22:10;-0.40;99.90
20041;DHT22;10181;48.072;9.884;2024-01-15T10:24:40;-0.30;99.90
20041;DHT22;10181;48.072;9.884;2024-01-15T10:27:09;-0.20;99.90
20041;DHT22;10181;48.072;9.884;2024-01-15T10:29:36;-0.10;99.90
20041;DHT22;10181;48.072;9.884;2024-01-15T10:32:02;0.00;99.90
20041;DHT22;10181;48.072;9.884;2024-01-15T10:34:30;0.10;99.90
20041;DHT22;10181;48.072;9.884;2024-01-15T10:36:55;0.10;99.90
20041;DHT22;10181;48.072;9.884;2024-01-15T10:39:24;0.20;99.90
20041;DHT22;10181;48.072;9.884;2024-01-15T10:41:51;0.30;99.90
20041;DHT22;10181;48.072;9.884;2024-01-15T10:44:19;0.20;99.90
20041;DHT22;10181;48.072;9.884;2024-01-15T10:46:45;0.20;99.90
20041;DHT22;10181;48.072;9.884;2024-01-15T10:49:12;0.20;99.90
20041;DHT22;10181;48.072;9.884;2024-01-15T10:51:38;0.20;99.90
20041;DHT22;10181;48.072;9.884;2024-01-15T10:54:04;0.20;99.90
20041;DHT22;10181;48.072;9.884;2024-01-15T10:56:31;0.20;99.90
20041;DHT22;10181;48.072;9.884;2024-01-15T10:58:59;0.20;99.90
20041;DHT22;10181;48.072;9.884;2024-01-15T11:01:25;0.20;99.90
20041;DHT22;10181;48.072;9.884;2024-01-15T11:03:51;0.30;99.90
20041;DHT22;10181;48.072;9.884;2024-01-15T11:06:18;0.40;99.90
20041;DHT22;10181;48.072;9.884;2024-01-15T11:08:49;0.40;99.90
20041;DHT22;10181;48.072;9.884;2024-01-15T11:11:16;0.50;99.90
20041;DHT22;10181;48.072;9.884;2024-01-15T11:13:42;0.50;99.90
20041;DHT22;10181;48.072;9.884;2024-01-15T11:16:11;0.60;99.90
20041;DHT22;10181;48.072;9.884;2024-01-15T11:18:43;0.50;99.90
20041;DHT22;10181;48.072;9.884;2024-01-15T11:21:26;0.50;99.90
20041;DHT22;10181;48.072;9.884;2024-01-15T11:34:54;0.60;99.90
20041;DHT22;10181;48.072;9.884;2024-01-15T11:37:21;0.60;99.90
20041;DHT22;10181;48.072;9.884;2024-01-15T11:39:51;0.60;99.90
20041;DHT22;10181;48.072;9.884;2024-01-15T11:42:17;0.50;99.90
20041;DHT22;10181;48.072;9.884;2024-01-15T11:44:44;0.50;99.90
20041;DHT22;10181;48.072;9.884;2024-01-15T11:47:11;0.40;99.90
20041;DHT22;10181;48.072;9.884;2024-01-15T11:49:59;0.40;99.90
20041;DHT22;10181;48.072;9.884;2024-01-15T11:52:36;0.50;99.90
20041;DHT22;10181;48.072;9.884;2024-01-15T11:55:27;0.60;99.90
20041;DHT22;10181;48.072;9.884;2024-01-15T11:57:54;0.60;99.90
20041;DHT22;10181;48.072;9.884;2024-01-15T12:00:23;0.50;99.90
20041;DHT22;10181;48.072;9.884;2024-01-15T12:02:50;0.50;99.90
20041;DHT22;10181;48.072;9.884;2024-01-15T12:05:18;0.40;99.90
20041;DHT22;10181;48.072;9.884;2024-01-15T12:07:45;0.30;99.90
20041;DHT22;10181;48.072;9.884;2024-01-15T12:10:15;0.30;99.90
20041;DHT22;10181;48.072;9.884;2024-01-15T12:12:59;0.30;99.90
20041;DHT22;10181;48.072;9.884;2024-01-15T12:15:27;0.40;99.90
20041;DHT22;10181;48.072;9.884;2024-01-15T12:17:58;0.30;99.90
20041;DHT22;10181;48.072;9.884;2024-01-15T12:20:28;0.40;99.90
20041;DHT22;10181;48.072;9.884;2024-01-15T12:22:53;0.40;99.90
20041;DHT22;10181;48.072;9.884;2024-01-15T12:25:21;0.40;99.90
20041;DHT22;10181;48.072;9.884;2024-01-15T12:27:47;0.50;99.90
20041;DHT22;10181;48.072;9.884;2024-01-15T12:30:13;0.40;99.90
20041;DHT22;10181;48.072;9.884;2024-01-15T12:32:42;0.30;99.90
20041;DHT22;10181;48.072;9.884;2024-01-15T12:35:09;0.40;99.90
20041;DHT22;10181;48.072;9.884;2024-01-15T12:37:36;0.40;99.90
20041;DHT22;10181;48.072;9.884;2024-01-15T12:40:06;0.30;99.90
20041;DHT22;10181;48.072;9.884;2024-01-15T12:42:33;0.30;99.90
20041;DHT22;10181;48.072;9.884;2024-01-15T12:44:59;0.30;99.90
20041;DHT22;10181;48.072;9.884;2024-01-15T12:47:25;0.30;99.90
20041;DHT22;10181;48.072;9.884;2024-01-15T12:49:52;0.30;99.90
20041;DHT22;10181;48.072;9.884;2024-01-15T12:52:21;0.30;99.90
20041;DHT22;10181;48.072;9.884;2024-01-15T12:54:51;0.50;99.90
20041;DHT22;10181;48.072;9.884;2024-01-15T12:57:17;0.50;99.90
20041;DHT22;10181;48.072;9.884;2024-01-15T12:59:44;0.50;99.90
20041;DHT22;10181;48.072;9.884;2024-01-15T13:02:13;0.60;99.90
20041;DHT22;10181;48.072;9.884;2024-01-15T13:04:39;0.70;99.90
20041;DHT22;10181;48.072;9.884;2024-01-15T13:07:06;0.70;99.90
20041;DHT22;10181;48.072;9.884;2024-01-15T13:09:32;0.80;99.90
20041;DHT22;10181;48.072;9.884;2024-01-15T13:11:58;0.90;99.90
20041;DHT22;10181;48.072;9.884;2024-01-15T13:14:24;0.90;99.90
20041;DHT22;10181;48.072;9.884;2024-01-15T13:16:50;0.70;99.90
20041;DHT22;10181;48.072;9.884;2024-01-15T13:19:15;0.70;99.90
20041;DHT22;10181;48.072;9.884;2024-01-15T13:21:41;0.70;99.90
20041;DHT22;10181;48.072;9.884;2024-01-15T13:24:07;0.70;99.90
20041;DHT22;10181;48.072;9.884;2024-01-15T13:26:36;0.70;99.90
20041;DHT22;10181;48.072;9.884;2024-01-15T13:29:03;0.80;99.90
20041;DHT22;10181;48.072;9.884;2024-01-15T13:31:31;0.80;99.90
20041;DHT22;10181;48.072;9.884;2024-01-15T13:33:57;0.80;99.90
20041;DHT22;10181;48.072;9.884;2024-01-15T13:36:26;0.90;99.90
20041;DHT22;10181;48.072;9.884;2024-01-15T13:38:53;0.80;99.90
20041;DHT22;10181;48.072;9.884;2024-01-15T13:41:20;0.90;99.90
20041;DHT22;10181;48.072;9.884;2024-01-15T13:43:53;1.10;99.90
20041;DHT22;10181;48.072;9.884;2024-01-15T13:46:19;1.00;99.90
20041;DHT22;10181;48.072;9.884;2024-01-15T13:48:46;0.90;99.90
20041;DHT22;10181;48.072;9.884;2024-01-15T13:51:11;0.90;99.90
20041;DHT22;10181;48.072;9.884;2024-01-15T13:53:40;0.90;99.90
20041;DHT22;10181;48.072;9.884;2024-01-15T13:56:06;0.90;99.90
20041;DHT22;10181;48.072;9.884;2024-01-15T13:58:33;0.90;99.90
20041;DHT22;10181;48.072;9.884;2024-01-15T14:00:59;0.90;99.90
20041;DHT22;10181;48.072;9.884;2024-01-15T14:03:25;0.90;99.90
20041;DHT22;10181;48.072;9.884;2024-01-15T14:05:51;0.90;99.90
20041;DHT22;10181;48.072;9.884;2024-01-15T14:08:17;0.90;99.90
20041;DHT22;10181;48.072;9.884;2024-01-15T14:10:42;0.90;99.90
20041;DHT22;10181;48.072;9.884;2024-01-15T14:13:08;0.90;99.90
20041;DHT22;10181;48.072;9.884;2024-01-15T14:15:34;0.90;99.90
20041;DHT22;10181;48.072;9.884;2024-01-15T14:18:00;0.90;99.90
20041;DHT22;10181;48.072;9.884;2024-01-15T14:20:26;0.90;99.90
20041;DHT22;10181;48.072;9.884;2024-01-15T14:22:53;0.90;99.90
20041;DHT22;10181;48.072;9.884;2024-01-15T14:25:19;1.00;99.90
20041;DHT22;10181;48.072;9.884;2024-01-15T14:27:45;1.10;99.90
20041;DHT22;10181;48.072;9.884;2024-01-15T14:30:11;1.10;99.90
20041;DHT22;10181;48.072;9.884;2024-01-15T14:32:38;1.10;99.90
20041;DHT22;10181;48.072;9.884;2024-01-15T14:35:07;1.10;99.90
20041;DHT22;10181;48.072;9.884;2024-01-15T14:37:39;1.00;99.90
20041;DHT22;10181;48.072;9.884;2024-01-15T14:40:07;0.90;99.90
20041;DHT22;10181;48.072;9.884;2024-01-15T14:42:34;1.00;99.90
20041;DHT22;10181;48.072;9.884;2024-01-15T14:45:00;1.00;99.90
20041;DHT22;10181;48.072;9.884;2024-01-15T14:47:27;0.90;99.90
20041;DHT22;10181;48.072;9.884;2024-01-15T14:49:53;0.90;99.90
20041;DHT22;10181;48.072;9.884;2024-01-15T14:52:18;0.90;99.90
20041;DHT22;10181;48.072;9.884;2024-01-15T14:54:44;0.80;99.90
20041;DHT22;10181;48.072;9.884;2024-01-15T14:57:09;0.80;99.90
20041;DHT22;10181;48.072;9.884;2024-01-15T14:59:35;0.80;99.90
20041;DHT22;10181;48.072;9.884;2024-01-15T15:02:00;0.90;99.90
20041;DHT22;10181;48.072;9.884;2024-01-15T15:04:26;1.00;99.90
20041;DHT22;10181;48.072;9.884;2024-01-15T15:06:53;1.00;99.90
20041;DHT22;10181;48.072;9.884;2024-01-15T15:09:19;1.00;99.90
20041;DHT22;10181;48.072;9.884;2024-01-15T15:11:44;1.00;99.90
20041;DHT22;10181;48.072;9.884;2024-01-15T15:14:10;0.80;99.90
20041;DHT22;10181;48.072;9.884;2024-01-15T15:16:37;0.80;99.90
20041;DHT22;10181;48.072;9.884;2024-01-15T15:19:02;0.80;99.90
20041;DHT22;10181;48.072;9.884;2024-01-15T15:21:28;0.80;99.90
20041;DHT22;10181;48.072;9.884;2024-01-15T15:23:55;0.80;99.90
20041;DHT22;10181;48.072;9.884;2024-01-15T15:26:20;0.80;99.90
20041;DHT22;10181;48.072;9.884;2024-01-15T15:28:46;0.90;99.90
20041;DHT22;10181;48.072;9.884;2024-01-15T15:31:12;0.80;99.90
20041;DHT22;10181;48.072;9.884;2024-01-15T15:33:37;0.80;99.90
20041;DHT22;10181;48.072;9.884;2024-01-15T15:36:04;0.70;99.90
20041;DHT22;10181;48.072;9.884;2024-01-15T15:38:33;0.70;99.90
20041;DHT22;10181;48.072;9.884;2024-01-15T15:40:59;0.70;99.90